LIPULIPH

Guest
Details From LIPU - Padova
To LIPH - Treviso
Flight Number -
Tags Decoded
Created
Modified
Stats Distance 21 nm / 38 km
Max Altitude 0 ft / 0 m
Waypoints 2
Social Downloads 1
Likes 0
Share VATSIM

Download

Looking for another format? Having issues loading an existing format? Contact us
Advertisement - Login to hide

Notes

Decoded

Route

LIPU LIPH

ID Type Via Altitude Latitude Longitude Leg Dist Tot Dist Heading (true) Name
O LIPU APT - 0 ft / 0 m 45.39247˚ 11.84366˚ - 0 nm - -
O LIPH APT - 0 ft / 0 m 45.64464˚ 12.17963˚ 20 nm 20 nm 43° / 43° -

Altitude Profile

Advertisement - Login to hide

LIPU

Details ICAO LIPU (QPA)
Name PADOVA
Region Italy
Timezone Europe/Rome (UTC+1.0)
Stats Elevation 44 ft / 13 m (AMSL)
Location 45.396352° 11.848238°
Runways 1
Magnetic Variation 3.068° E

METAR

LIPU 130700Z VRB01KT 0800 FG BKN020 01/01 Q1016

Decode

TAF

Not found

Departure Runways

ID Width Length Bearing (true) Bearing (mag) Surface Threshold Offset Overrun Length
04 98 ft / 30 m 3,676 ft / 1,120 m 39.65° 36.58° Asphalt 203 ft / 62 m 0 ft / 0 m
22 98 ft / 30 m 3,676 ft / 1,120 m 219.66° 216.59° Asphalt 735 ft / 224 m 0 ft / 0 m

LIPH

Details ICAO LIPH (TSF)
Name TREVISO
Region Italy
Timezone Europe/Rome (UTC+1.0)
Stats Elevation 59 ft / 18 m (AMSL)
Location 45.648499° 12.194136°
Runways 1
Magnetic Variation 3.152° E

METAR

LIPH 130720Z VRB02KT 6000 SCT010 BKN070 04/04 Q1016

Decode

TAF

TAF LIPH 130500Z 1306/1406 VRB05KT 3000 BR SCT015 TEMPO 1306/1308 0600 FG BKN004 BECMG 1308/1310 6000 BECMG 1320/1322 3000 BR TEMPO 1400/1406 0600 FG BKN004

Decode

Destination Runways

ID Width Length Bearing (true) Bearing (mag) Surface Threshold Offset Overrun Length
07 144 ft / 44 m 7,919 ft / 2,414 m 69.18° 66.03° Asphalt 254 ft / 77 m 975 ft / 297 m
25 144 ft / 44 m 7,919 ft / 2,414 m 249.20° 246.05° Asphalt 389 ft / 119 m 0 ft / 0 m

Approach Navaids

Runway Type Ident Frequency Range Bearing (true) Bearing (mag) Slope Elevation
07 Localiser TRE 109.30 MHz 18 nm / 33 km 69.20° 66.05° - 51 ft / 16 m (AMSL)
07 Glidescope TRE 109.30 MHz 10 nm / 19 km 69.19° 66.04° 3.00° 56 ft / 17 m (AMSL)